sensor_id;sensor_type;location;lat;lon;timestamp;P1;durP1;ratioP1;P2;durP2;ratioP2
61673;SDS011;47573;43.832;5.974;2023-05-29T00:02:34;321.77;;;231.67;;
61673;SDS011;47573;43.832;5.974;2023-05-29T00:09:16;316.42;;;226.27;;
61673;SDS011;47573;43.832;5.974;2023-05-29T00:15:56;315.60;;;223.03;;
61673;SDS011;47573;43.832;5.974;2023-05-29T00:22:37;314.30;;;223.20;;
61673;SDS011;47573;43.832;5.974;2023-05-29T00:29:18;300.95;;;213.05;;
61673;SDS011;47573;43.832;5.974;2023-05-29T00:35:59;302.97;;;213.13;;
61673;SDS011;47573;43.832;5.974;2023-05-29T00:42:40;279.63;;;197.57;;
61673;SDS011;47573;43.832;5.974;2023-05-29T00:49:22;283.45;;;199.55;;
61673;SDS011;47573;43.832;5.974;2023-05-29T00:56:02;291.08;;;200.73;;
61673;SDS011;47573;43.832;5.974;2023-05-29T01:02:43;285.50;;;195.13;;
61673;SDS011;47573;43.832;5.974;2023-05-29T01:09:26;269.73;;;185.77;;
61673;SDS011;47573;43.832;5.974;2023-05-29T01:16:08;269.43;;;188.43;;
61673;SDS011;47573;43.832;5.974;2023-05-29T01:23:01;264.38;;;182.95;;
61673;SDS011;47573;43.832;5.974;2023-05-29T01:29:49;261.55;;;179.13;;
61673;SDS011;47573;43.832;5.974;2023-05-29T01:36:31;258.40;;;176.00;;
61673;SDS011;47573;43.832;5.974;2023-05-29T01:43:12;256.87;;;174.90;;
61673;SDS011;47573;43.832;5.974;2023-05-29T01:49:54;244.25;;;162.48;;
61673;SDS011;47573;43.832;5.974;2023-05-29T01:56:36;244.05;;;165.90;;
61673;SDS011;47573;43.832;5.974;2023-05-29T02:03:17;241.02;;;162.65;;
61673;SDS011;47573;43.832;5.974;2023-05-29T02:09:59;236.55;;;159.30;;
61673;SDS011;47573;43.832;5.974;2023-05-29T02:16:39;229.40;;;153.33;;
61673;SDS011;47573;43.832;5.974;2023-05-29T02:23:20;229.53;;;152.97;;
61673;SDS011;47573;43.832;5.974;2023-05-29T02:30:02;222.95;;;150.30;;
61673;SDS011;47573;43.832;5.974;2023-05-29T02:36:43;219.57;;;146.02;;
61673;SDS011;47573;43.832;5.974;2023-05-29T02:43:24;213.63;;;143.80;;
61673;SDS011;47573;43.832;5.974;2023-05-29T02:50:06;218.65;;;144.88;;
61673;SDS011;47573;43.832;5.974;2023-05-29T02:56:47;208.20;;;139.32;;
61673;SDS011;47573;43.832;5.974;2023-05-29T03:03:27;204.27;;;138.50;;
61673;SDS011;47573;43.832;5.974;2023-05-29T03:10:09;204.00;;;137.25;;
61673;SDS011;47573;43.832;5.974;2023-05-29T03:16:50;194.43;;;131.07;;
61673;SDS011;47573;43.832;5.974;2023-05-29T03:23:30;190.77;;;130.05;;
61673;SDS011;47573;43.832;5.974;2023-05-29T03:30:12;190.67;;;127.87;;
61673;SDS011;47573;43.832;5.974;2023-05-29T03:36:53;172.50;;;119.03;;
61673;SDS011;47573;43.832;5.974;2023-05-29T03:43:33;177.02;;;120.65;;
61673;SDS011;47573;43.832;5.974;2023-05-29T03:50:15;177.93;;;120.85;;
61673;SDS011;47573;43.832;5.974;2023-05-29T03:56:56;173.60;;;117.57;;
61673;SDS011;47573;43.832;5.974;2023-05-29T04:03:36;169.60;;;113.57;;
61673;SDS011;47573;43.832;5.974;2023-05-29T04:10:18;168.90;;;113.47;;
61673;SDS011;47573;43.832;5.974;2023-05-29T04:16:59;167.97;;;112.03;;
61673;SDS011;47573;43.832;5.974;2023-05-29T04:23:42;165.35;;;109.55;;
61673;SDS011;47573;43.832;5.974;2023-05-29T04:30:24;151.35;;;105.88;;
61673;SDS011;47573;43.832;5.974;2023-05-29T04:37:04;150.45;;;103.63;;
61673;SDS011;47573;43.832;5.974;2023-05-29T04:43:45;142.45;;;95.72;;
61673;SDS011;47573;43.832;5.974;2023-05-29T04:50:27;79.23;;;53.73;;
61673;SDS011;47573;43.832;5.974;2023-05-29T04:57:07;36.73;;;22.00;;
61673;SDS011;47573;43.832;5.974;2023-05-29T05:03:47;283.37;;;90.27;;
61673;SDS011;47573;43.832;5.974;2023-05-29T05:10:29;72.23;;;22.73;;
61673;SDS011;47573;43.832;5.974;2023-05-29T05:17:10;104.57;;;30.90;;
61673;SDS011;47573;43.832;5.974;2023-05-29T05:23:50;15.23;;;8.83;;
61673;SDS011;47573;43.832;5.974;2023-05-29T05:30:32;12.50;;;7.47;;
61673;SDS011;47573;43.832;5.974;2023-05-29T05:37:13;114.38;;;33.22;;
61673;SDS011;47573;43.832;5.974;2023-05-29T05:43:53;46.57;;;18.37;;
61673;SDS011;47573;43.832;5.974;2023-05-29T05:50:35;56.97;;;19.77;;
61673;SDS011;47573;43.832;5.974;2023-05-29T05:57:15;23.88;;;11.52;;
61673;SDS011;47573;43.832;5.974;2023-05-29T06:03:56;12.47;;;8.27;;
61673;SDS011;47573;43.832;5.974;2023-05-29T06:10:38;11.90;;;7.00;;
61673;SDS011;47573;43.832;5.974;2023-05-29T06:17:18;36.73;;;15.73;;
61673;SDS011;47573;43.832;5.974;2023-05-29T06:23:59;16.17;;;9.80;;
61673;SDS011;47573;43.832;5.974;2023-05-29T06:30:41;15.73;;;7.68;;
61673;SDS011;47573;43.832;5.974;2023-05-29T06:37:21;74.75;;;25.15;;
61673;SDS011;47573;43.832;5.974;2023-05-29T06:44:02;518.20;;;199.43;;
61673;SDS011;47573;43.832;5.974;2023-05-29T06:50:43;14.57;;;9.77;;
61673;SDS011;47573;43.832;5.974;2023-05-29T06:57:24;13.73;;;8.82;;
61673;SDS011;47573;43.832;5.974;2023-05-29T07:04:04;11.83;;;8.07;;
61673;SDS011;47573;43.832;5.974;2023-05-29T07:10:46;116.27;;;36.27;;
61673;SDS011;47573;43.832;5.974;2023-05-29T07:17:27;11.70;;;7.38;;
61673;SDS011;47573;43.832;5.974;2023-05-29T07:24:07;115.33;;;41.87;;
61673;SDS011;47573;43.832;5.974;2023-05-29T07:30:49;20.75;;;9.95;;
61673;SDS011;47573;43.832;5.974;2023-05-29T07:37:30;14.73;;;9.00;;
61673;SDS011;47573;43.832;5.974;2023-05-29T07:44:10;14.23;;;9.55;;
61673;SDS011;47573;43.832;5.974;2023-05-29T07:50:52;84.20;;;27.67;;
61673;SDS011;47573;43.832;5.974;2023-05-29T07:57:32;16.45;;;10.52;;
61673;SDS011;47573;43.832;5.974;2023-05-29T08:04:13;13.47;;;9.30;;
61673;SDS011;47573;43.832;5.974;2023-05-29T08:10:55;34.20;;;16.07;;
61673;SDS011;47573;43.832;5.974;2023-05-29T08:17:35;18.58;;;11.38;;
61673;SDS011;47573;43.832;5.974;2023-05-29T08:24:16;16.77;;;10.97;;
61673;SDS011;47573;43.832;5.974;2023-05-29T08:30:58;14.13;;;10.48;;
61673;SDS011;47573;43.832;5.974;2023-05-29T08:37:38;14.95;;;10.35;;
61673;SDS011;47573;43.832;5.974;2023-05-29T08:44:20;14.67;;;10.57;;
61673;SDS011;47573;43.832;5.974;2023-05-29T08:51:04;14.90;;;10.50;;
61673;SDS011;47573;43.832;5.974;2023-05-29T08:57:46;14.32;;;10.13;;
61673;SDS011;47573;43.832;5.974;2023-05-29T09:04:27;14.00;;;10.27;;
61673;SDS011;47573;43.832;5.974;2023-05-29T09:11:10;14.63;;;10.23;;
61673;SDS011;47573;43.832;5.974;2023-05-29T09:17:50;14.02;;;10.05;;
61673;SDS011;47573;43.832;5.974;2023-05-29T09:24:32;13.48;;;10.20;;
61673;SDS011;47573;43.832;5.974;2023-05-29T09:31:15;14.30;;;10.37;;
61673;SDS011;47573;43.832;5.974;2023-05-29T09:37:55;14.15;;;10.73;;
61673;SDS011;47573;43.832;5.974;2023-05-29T09:44:36;14.70;;;10.30;;
61673;SDS011;47573;43.832;5.974;2023-05-29T09:51:21;13.43;;;9.93;;
61673;SDS011;47573;43.832;5.974;2023-05-29T09:58:02;14.63;;;10.48;;
61673;SDS011;47573;43.832;5.974;2023-05-29T10:04:44;12.60;;;9.45;;
61673;SDS011;47573;43.832;5.974;2023-05-29T10:11:26;12.68;;;10.30;;
61673;SDS011;47573;43.832;5.974;2023-05-29T10:18:10;13.75;;;9.82;;
61673;SDS011;47573;43.832;5.974;2023-05-29T10:24:56;13.80;;;10.10;;
61673;SDS011;47573;43.832;5.974;2023-05-29T10:31:42;15.23;;;10.52;;
61673;SDS011;47573;43.832;5.974;2023-05-29T10:38:28;49.72;;;19.45;;
61673;SDS011;47573;43.832;5.974;2023-05-29T10:45:09;803.78;;;385.40;;
61673;SDS011;47573;43.832;5.974;2023-05-29T10:51:51;12.77;;;9.38;;
61673;SDS011;47573;43.832;5.974;2023-05-29T10:58:32;12.15;;;8.93;;
61673;SDS011;47573;43.832;5.974;2023-05-29T11:05:19;12.23;;;9.40;;
61673;SDS011;47573;43.832;5.974;2023-05-29T11:12:22;332.58;;;109.15;;
61673;SDS011;47573;43.832;5.974;2023-05-29T11:19:04;14.45;;;9.90;;
61673;SDS011;47573;43.832;5.974;2023-05-29T11:25:46;11.98;;;8.70;;
61673;SDS011;47573;43.832;5.974;2023-05-29T11:32:28;11.93;;;8.95;;
61673;SDS011;47573;43.832;5.974;2023-05-29T11:39:12;10.75;;;8.07;;
61673;SDS011;47573;43.832;5.974;2023-05-29T11:45:52;12.52;;;8.25;;
61673;SDS011;47573;43.832;5.974;2023-05-29T11:52:34;12.07;;;8.17;;
61673;SDS011;47573;43.832;5.974;2023-05-29T11:59:15;11.17;;;7.83;;
61673;SDS011;47573;43.832;5.974;2023-05-29T12:05:55;10.83;;;8.10;;
61673;SDS011;47573;43.832;5.974;2023-05-29T12:12:37;11.47;;;8.13;;
61673;SDS011;47573;43.832;5.974;2023-05-29T12:19:17;10.50;;;8.23;;
61673;SDS011;47573;43.832;5.974;2023-05-29T12:25:58;170.52;;;80.70;;
61673;SDS011;47573;43.832;5.974;2023-05-29T12:32:41;127.28;;;60.35;;
61673;SDS011;47573;43.832;5.974;2023-05-29T12:39:22;89.68;;;44.42;;
61673;SDS011;47573;43.832;5.974;2023-05-29T12:46:03;101.20;;;49.53;;
61673;SDS011;47573;43.832;5.974;2023-05-29T12:52:53;111.85;;;55.67;;
61673;SDS011;47573;43.832;5.974;2023-05-29T12:59:38;104.78;;;50.80;;
61673;SDS011;47573;43.832;5.974;2023-05-29T13:06:18;110.53;;;54.83;;
61673;SDS011;47573;43.832;5.974;2023-05-29T13:13:00;114.70;;;56.70;;
61673;SDS011;47573;43.832;5.974;2023-05-29T13:19:40;111.30;;;56.63;;
61673;SDS011;47573;43.832;5.974;2023-05-29T13:26:21;111.53;;;55.03;;
61673;SDS011;47573;43.832;5.974;2023-05-29T13:33:03;109.85;;;54.17;;
61673;SDS011;47573;43.832;5.974;2023-05-29T13:39:43;107.80;;;52.50;;
61673;SDS011;47573;43.832;5.974;2023-05-29T13:46:24;106.25;;;52.75;;
61673;SDS011;47573;43.832;5.974;2023-05-29T13:53:06;341.33;;;120.90;;
61673;SDS011;47573;43.832;5.974;2023-05-29T13:59:46;105.40;;;53.23;;
61673;SDS011;47573;43.832;5.974;2023-05-29T14:06:27;106.88;;;55.03;;
61673;SDS011;47573;43.832;5.974;2023-05-29T14:13:09;98.95;;;53.85;;
61673;SDS011;47573;43.832;5.974;2023-05-29T14:19:49;97.00;;;53.23;;
61673;SDS011;47573;43.832;5.974;2023-05-29T14:26:30;104.03;;;53.80;;
61673;SDS011;47573;43.832;5.974;2023-05-29T14:33:11;225.43;;;97.53;;
61673;SDS011;47573;43.832;5.974;2023-05-29T14:39:52;89.47;;;50.00;;
61673;SDS011;47573;43.832;5.974;2023-05-29T14:46:32;111.40;;;65.60;;
61673;SDS011;47573;43.832;5.974;2023-05-29T14:53:14;123.65;;;73.18;;
61673;SDS011;47573;43.832;5.974;2023-05-29T14:59:55;119.93;;;72.90;;
61673;SDS011;47573;43.832;5.974;2023-05-29T15:06:35;138.93;;;81.70;;
61673;SDS011;47573;43.832;5.974;2023-05-29T15:13:17;138.38;;;85.63;;
61673;SDS011;47573;43.832;5.974;2023-05-29T15:19:58;153.20;;;93.67;;
61673;SDS011;47573;43.832;5.974;2023-05-29T15:26:39;141.32;;;89.50;;
61673;SDS011;47573;43.832;5.974;2023-05-29T15:33:21;141.77;;;91.80;;
61673;SDS011;47573;43.832;5.974;2023-05-29T15:46:42;146.93;;;93.45;;
61673;SDS011;47573;43.832;5.974;2023-05-29T15:53:24;162.40;;;104.73;;
61673;SDS011;47573;43.832;5.974;2023-05-29T16:00:05;173.43;;;116.57;;
61673;SDS011;47573;43.832;5.974;2023-05-29T16:06:47;177.75;;;118.57;;
61673;SDS011;47573;43.832;5.974;2023-05-29T16:13:29;189.27;;;124.57;;
61673;SDS011;47573;43.832;5.974;2023-05-29T16:20:10;190.67;;;122.40;;
61673;SDS011;47573;43.832;5.974;2023-05-29T16:26:51;221.20;;;143.40;;
61673;SDS011;47573;43.832;5.974;2023-05-29T16:33:33;251.90;;;162.33;;
61673;SDS011;47573;43.832;5.974;2023-05-29T16:40:13;263.83;;;174.25;;
61673;SDS011;47573;43.832;5.974;2023-05-29T16:46:54;275.60;;;185.20;;
61673;SDS011;47573;43.832;5.974;2023-05-29T16:53:36;303.63;;;207.53;;
61673;SDS011;47573;43.832;5.974;2023-05-29T17:00:16;312.23;;;207.33;;
61673;SDS011;47573;43.832;5.974;2023-05-29T17:06:57;332.40;;;227.48;;
61673;SDS011;47573;43.832;5.974;2023-05-29T17:13:39;358.47;;;252.10;;
61673;SDS011;47573;43.832;5.974;2023-05-29T17:20:20;365.97;;;251.33;;
61673;SDS011;47573;43.832;5.974;2023-05-29T17:27:00;392.00;;;264.90;;
61673;SDS011;47573;43.832;5.974;2023-05-29T17:33:42;405.80;;;275.50;;
61673;SDS011;47573;43.832;5.974;2023-05-29T17:40:23;403.10;;;271.83;;
61673;SDS011;47573;43.832;5.974;2023-05-29T17:47:03;414.25;;;269.92;;
61673;SDS011;47573;43.832;5.974;2023-05-29T17:53:45;418.38;;;281.00;;
61673;SDS011;47573;43.832;5.974;2023-05-29T18:00:26;461.30;;;319.53;;
61673;SDS011;47573;43.832;5.974;2023-05-29T18:07:07;475.33;;;325.43;;
61673;SDS011;47573;43.832;5.974;2023-05-29T18:13:48;461.10;;;317.00;;
61673;SDS011;47573;43.832;5.974;2023-05-29T18:20:29;404.40;;;265.80;;
61673;SDS011;47573;43.832;5.974;2023-05-29T18:27:09;346.83;;;226.87;;
61673;SDS011;47573;43.832;5.974;2023-05-29T18:33:51;344.57;;;216.97;;
61673;SDS011;47573;43.832;5.974;2023-05-29T18:40:32;340.90;;;222.07;;
61673;SDS011;47573;43.832;5.974;2023-05-29T18:47:12;235.57;;;142.45;;
61673;SDS011;47573;43.832;5.974;2023-05-29T18:53:54;156.07;;;94.77;;
61673;SDS011;47573;43.832;5.974;2023-05-29T19:00:36;151.00;;;91.25;;
61673;SDS011;47573;43.832;5.974;2023-05-29T19:07:16;147.77;;;85.83;;
61673;SDS011;47573;43.832;5.974;2023-05-29T19:13:58;195.60;;;118.93;;
61673;SDS011;47573;43.832;5.974;2023-05-29T19:20:39;151.70;;;94.00;;
61673;SDS011;47573;43.832;5.974;2023-05-29T19:27:19;168.90;;;98.53;;
61673;SDS011;47573;43.832;5.974;2023-05-29T19:34:01;130.63;;;73.83;;
61673;SDS011;47573;43.832;5.974;2023-05-29T19:40:42;129.93;;;81.25;;
61673;SDS011;47573;43.832;5.974;2023-05-29T19:47:23;137.15;;;81.68;;
61673;SDS011;47573;43.832;5.974;2023-05-29T19:54:05;111.40;;;67.45;;
61673;SDS011;47573;43.832;5.974;2023-05-29T20:00:46;172.37;;;80.43;;
61673;SDS011;47573;43.832;5.974;2023-05-29T20:07:26;104.43;;;58.33;;
61673;SDS011;47573;43.832;5.974;2023-05-29T20:14:08;143.07;;;86.45;;
61673;SDS011;47573;43.832;5.974;2023-05-29T20:20:49;172.13;;;106.07;;
61673;SDS011;47573;43.832;5.974;2023-05-29T20:27:29;182.82;;;112.38;;
61673;SDS011;47573;43.832;5.974;2023-05-29T20:34:11;187.27;;;116.80;;
61673;SDS011;47573;43.832;5.974;2023-05-29T20:40:52;194.13;;;117.73;;
61673;SDS011;47573;43.832;5.974;2023-05-29T20:47:32;208.90;;;130.20;;
